Open Full Screen Window  High Contrast Mode
Wind Gusting 00 knots
05
May 26, 2018 1:41 AM EDT
Weather Information
Wind Direction
  180 °
Wind Speed
  05 kt (6 mph)
Wind Gust
  00 kt (0 mph)
Altimeter
29.88 in
Visibility
10 SM
Temperature
20° C
68° F
Dewpoint
14° C
57° F
Humidity
69%
1hr Rain Fall
00.00 in.
24hr Rain Fall
00.00 in.
Sky Condition
Clear
VFR

METAR KI19 260541Z AUTO 18005KT 10SM CLR 20/14 A2988 RMK AO2 T02010140

FAA Disclaimer: The data displayed is for advisory purposes only and is not to be used for flight planning or operations.